createdAt,value
2022-08-16T00:01:41.043Z,5.15
2022-08-16T00:04:09.655Z,4.85
2022-08-16T00:06:39.471Z,5.13
2022-08-16T00:09:06.494Z,4.57
2022-08-16T00:11:33.142Z,4.90
2022-08-16T00:13:59.875Z,5.60
2022-08-16T00:17:06.636Z,4.80
2022-08-16T00:19:19.872Z,4.85
2022-08-16T00:21:53.300Z,5.45
2022-08-16T00:24:32.402Z,5.30
2022-08-16T00:26:59.785Z,4.72
2022-08-16T00:29:29.515Z,5.13
2022-08-16T00:31:59.498Z,5.05
2022-08-16T00:34:44.249Z,4.72
2022-08-16T00:37:20.573Z,5.32
2022-08-16T00:39:58.205Z,5.15
2022-08-16T00:42:31.722Z,5.10
2022-08-16T00:45:25.090Z,5.85
2022-08-16T00:47:52.033Z,5.35
2022-08-16T00:50:35.980Z,5.57
2022-08-16T00:53:08.603Z,5.38
2022-08-16T00:55:37.984Z,5.43
2022-08-16T00:58:04.912Z,5.95
2022-08-16T01:00:40.096Z,5.50
2022-08-16T01:03:12.627Z,5.90
2022-08-16T01:05:39.576Z,5.53
2022-08-16T01:08:36.343Z,5.25
2022-08-16T01:10:53.230Z,4.93
2022-08-16T01:13:26.759Z,5.68
2022-08-16T01:15:59.001Z,6.65
2022-08-16T01:18:40.522Z,5.82
2022-08-16T01:21:33.570Z,5.90
2022-08-16T01:24:52.437Z,5.80
2022-08-16T01:27:20.956Z,6.00
2022-08-16T01:30:00.047Z,6.80
2022-08-16T01:32:34.315Z,6.43
2022-08-16T01:35:24.683Z,6.60
2022-08-16T01:37:54.287Z,5.55
2022-08-16T01:40:29.060Z,6.43
2022-08-16T01:42:56.138Z,5.53
2022-08-16T01:45:23.551Z,5.90
2022-08-16T01:48:19.639Z,6.53
2022-08-16T01:51:09.366Z,6.47
2022-08-16T01:53:34.710Z,6.00
2022-08-16T01:56:05.035Z,4.50
2022-08-16T01:58:34.822Z,5.85
2022-08-16T02:01:06.162Z,5.75
2022-08-16T02:03:35.593Z,5.70
2022-08-16T02:06:08.054Z,6.55
2022-08-16T02:08:34.796Z,5.78
2022-08-16T02:11:06.225Z,5.72
2022-08-16T02:13:34.576Z,6.25
2022-08-16T02:16:01.763Z,5.88
2022-08-16T02:18:28.810Z,5.25
2022-08-16T02:20:59.550Z,5.32
2022-08-16T02:23:29.609Z,5.70
2022-08-16T02:25:56.566Z,6.05
2022-08-16T02:28:26.286Z,6.05
2022-08-16T02:30:54.327Z,5.55
2022-08-16T02:33:24.921Z,5.93
2022-08-16T02:36:14.297Z,5.75
2022-08-16T02:38:41.835Z,5.68
2022-08-16T02:41:09.985Z,5.70
2022-08-16T02:43:38.917Z,5.70
2022-08-16T02:46:07.870Z,5.47
2022-08-16T02:48:38.564Z,5.70
2022-08-16T02:51:10.758Z,5.53
2022-08-16T02:53:43.161Z,6.43
2022-08-16T02:56:12.291Z,5.85
2022-08-16T02:58:42.383Z,5.50
2022-08-16T03:01:24.044Z,5.88
2022-08-16T03:04:28.717Z,5.05
2022-08-16T03:06:43.140Z,5.82
2022-08-16T03:09:20.149Z,5.50
2022-08-16T03:11:51.438Z,5.10
2022-08-16T03:14:21.445Z,5.88
2022-08-16T03:16:59.574Z,5.65
2022-08-16T03:19:48.196Z,5.53
2022-08-16T03:22:28.997Z,5.57
2022-08-16T03:25:07.905Z,5.40
2022-08-16T03:27:36.414Z,5.35
2022-08-16T03:30:16.246Z,5.60
2022-08-16T03:32:51.482Z,5.50
2022-08-16T03:35:22.246Z,5.40
2022-08-16T03:38:02.519Z,5.40
2022-08-16T03:40:38.965Z,5.28
2022-08-16T03:43:19.673Z,5.32
2022-08-16T03:45:52.342Z,5.53
2022-08-16T03:48:36.415Z,5.50
2022-08-16T03:51:12.889Z,5.30
2022-08-16T03:53:57.582Z,5.78
2022-08-16T03:56:27.934Z,5.72
2022-08-16T03:59:00.373Z,5.70
2022-08-16T04:01:33.159Z,5.68
2022-08-16T04:04:03.412Z,6.20
2022-08-16T04:06:31.157Z,5.68
2022-08-16T04:08:57.952Z,5.55
2022-08-16T04:11:24.726Z,5.72
2022-08-16T04:14:00.265Z,5.50
2022-08-16T04:16:39.351Z,5.40
2022-08-16T04:19:25.956Z,5.47
2022-08-16T04:22:00.695Z,5.20
2022-08-16T04:24:30.951Z,5.63
2022-08-16T04:26:58.322Z,5.43
2022-08-16T04:29:44.221Z,5.10
2022-08-16T04:32:14.267Z,5.20
2022-08-16T04:34:43.659Z,4.90
2022-08-16T04:37:12.323Z,4.72
2022-08-16T04:39:46.951Z,4.93
2022-08-16T04:42:26.226Z,4.45
2022-08-16T04:44:57.636Z,5.20
2022-08-16T04:47:33.001Z,5.25
2022-08-16T04:50:18.115Z,5.10
2022-08-16T04:53:09.692Z,4.80
2022-08-16T04:55:42.138Z,4.78
2022-08-16T04:58:43.960Z,4.95
2022-08-16T05:00:57.625Z,5.00
2022-08-16T05:03:24.785Z,4.95
2022-08-16T05:05:58.916Z,6.25
2022-08-16T05:08:30.998Z,4.60
2022-08-16T05:11:08.561Z,5.15
2022-08-16T05:13:40.898Z,5.25
2022-08-16T05:16:16.683Z,5.63
2022-08-16T05:18:49.868Z,4.75
2022-08-16T05:21:16.871Z,5.35
2022-08-16T05:23:55.743Z,6.05
2022-08-16T05:26:28.010Z,5.40
2022-08-16T05:28:56.525Z,5.55
2022-08-16T05:31:29.288Z,4.97
2022-08-16T05:33:59.541Z,5.90
2022-08-16T05:36:34.018Z,5.05
2022-08-16T05:39:05.464Z,4.80
2022-08-16T05:41:32.539Z,5.38
2022-08-16T05:44:00.369Z,5.45
2022-08-16T05:46:43.614Z,5.32
2022-08-16T05:49:22.189Z,5.20
2022-08-16T05:51:56.845Z,4.93
2022-08-16T05:54:25.866Z,4.85
2022-08-16T05:56:59.931Z,5.10
2022-08-16T05:59:27.772Z,4.90
2022-08-16T06:01:56.204Z,4.22
2022-08-16T06:04:34.826Z,4.63
2022-08-16T06:07:08.274Z,4.97
2022-08-16T06:09:43.335Z,4.78
2022-08-16T06:12:26.989Z,4.63
2022-08-16T06:14:59.099Z,4.90
2022-08-16T06:17:42.951Z,4.85
2022-08-16T06:20:25.708Z,4.47
2022-08-16T06:23:11.593Z,4.82
2022-08-16T06:26:04.048Z,4.25
2022-08-16T06:28:37.207Z,4.60
2022-08-16T06:31:12.475Z,3.80
2022-08-16T06:33:44.956Z,4.80
2022-08-16T06:36:14.881Z,4.00
2022-08-16T06:38:55.836Z,4.28
2022-08-16T06:41:55.954Z,4.22
2022-08-16T06:44:41.059Z,3.90
2022-08-16T06:47:23.476Z,4.07
2022-08-16T06:50:10.640Z,4.70
2022-08-16T06:52:59.913Z,3.45
2022-08-16T06:55:34.517Z,3.70
2022-08-16T06:58:08.312Z,3.80
2022-08-16T07:00:37.651Z,3.28
2022-08-16T07:03:26.944Z,3.47
2022-08-16T07:05:56.824Z,3.63
2022-08-16T07:08:28.213Z,4.00
2022-08-16T07:10:55.504Z,3.45
2022-08-16T07:13:58.460Z,3.75
2022-08-16T07:16:14.426Z,3.60
2022-08-16T07:18:58.966Z,3.80
2022-08-16T07:21:46.533Z,3.33
2022-08-16T07:24:30.262Z,3.97
2022-08-16T07:27:03.053Z,3.65
2022-08-16T07:29:31.773Z,3.35
2022-08-16T07:32:00.944Z,3.72
2022-08-16T07:34:35.762Z,3.42
2022-08-16T07:37:09.744Z,3.40
2022-08-16T07:40:11.522Z,3.40
2022-08-16T07:42:42.781Z,3.42
2022-08-16T07:45:12.299Z,3.88
2022-08-16T07:47:44.614Z,3.10
2022-08-16T07:50:56.393Z,3.15
2022-08-16T07:53:01.949Z,3.80
2022-08-16T07:55:45.767Z,3.30
2022-08-16T07:58:18.334Z,3.40
2022-08-16T08:01:01.822Z,3.30
2022-08-16T08:03:38.812Z,3.15
2022-08-16T08:06:10.357Z,3.05
2022-08-16T08:08:51.044Z,3.00
2022-08-16T08:11:21.384Z,3.08
2022-08-16T08:13:50.721Z,2.78
2022-08-16T08:16:19.879Z,3.05
2022-08-16T08:18:50.453Z,3.13
2022-08-16T08:21:27.447Z,2.70
2022-08-16T08:24:15.192Z,2.88
2022-08-16T08:26:42.881Z,3.50
2022-08-16T08:29:10.525Z,3.03
2022-08-16T08:31:42.078Z,3.25
2022-08-16T08:34:12.586Z,3.03
2022-08-16T08:36:40.017Z,2.75
2022-08-16T08:39:22.680Z,2.92
2022-08-16T08:41:51.260Z,2.30
2022-08-16T08:44:28.324Z,2.83
2022-08-16T08:47:09.417Z,2.85
2022-08-16T08:49:46.688Z,2.60
2022-08-16T08:52:34.128Z,2.38
2022-08-16T08:55:10.425Z,2.75
2022-08-16T08:57:43.085Z,2.60
2022-08-16T09:00:22.943Z,2.80
2022-08-16T09:02:56.325Z,2.72
2022-08-16T09:05:26.156Z,2.67
2022-08-16T09:08:05.895Z,2.30
2022-08-16T09:11:02.030Z,2.85
2022-08-16T09:13:33.129Z,2.80
2022-08-16T09:16:00.420Z,3.10
2022-08-16T09:18:35.650Z,2.42
2022-08-16T09:21:07.172Z,3.25
2022-08-16T09:23:37.027Z,2.63
2022-08-16T09:26:44.398Z,2.70
2022-08-16T09:29:14.773Z,2.38
2022-08-16T09:31:41.311Z,2.35
2022-08-16T09:34:09.273Z,2.88
2022-08-16T09:36:37.654Z,2.50
2022-08-16T09:39:16.106Z,2.55
2022-08-16T09:41:53.348Z,2.15
2022-08-16T09:45:10.886Z,2.63
2022-08-16T09:47:10.270Z,2.33
2022-08-16T09:49:37.575Z,2.13
2022-08-16T09:52:09.464Z,2.08
2022-08-16T09:54:36.803Z,2.45
2022-08-16T09:57:03.452Z,2.20
2022-08-16T09:59:31.366Z,2.40
2022-08-16T10:02:26.411Z,2.72
2022-08-16T10:04:54.909Z,2.20
2022-08-16T10:07:22.343Z,2.78
2022-08-16T10:09:54.344Z,2.20
2022-08-16T10:12:43.431Z,2.45
2022-08-16T10:15:17.704Z,2.10
2022-08-16T10:17:59.610Z,2.40
2022-08-16T10:20:27.810Z,2.75
2022-08-16T10:23:02.055Z,2.78
2022-08-16T10:27:03.737Z,2.03
2022-08-16T10:28:28.709Z,2.40
2022-08-16T10:31:00.532Z,2.40
2022-08-16T10:33:33.359Z,2.15
2022-08-16T10:36:03.809Z,2.45
2022-08-16T10:38:32.927Z,2.10
2022-08-16T10:41:00.670Z,2.20
2022-08-16T10:43:31.167Z,2.95
2022-08-16T10:46:00.960Z,2.00
2022-08-16T10:48:28.684Z,2.65
2022-08-16T10:50:59.548Z,2.22
2022-08-16T10:53:33.174Z,2.17
2022-08-16T10:56:01.876Z,2.00
2022-08-16T10:58:34.264Z,2.47
2022-08-16T11:01:25.000Z,2.20
2022-08-16T11:03:49.100Z,2.47
2022-08-16T11:06:21.649Z,2.40
2022-08-16T11:14:30.529Z,2.38
2022-08-16T11:17:02.958Z,1.80
2022-08-16T11:20:00.596Z,1.95
2022-08-16T11:22:46.986Z,1.95
2022-08-16T11:25:12.420Z,2.10
2022-08-16T11:27:39.674Z,2.60
2022-08-16T11:30:09.125Z,2.33
2022-08-16T11:32:39.099Z,2.55
2022-08-16T11:35:10.200Z,2.17
2022-08-16T11:40:32.750Z,2.10
2022-08-16T11:43:04.269Z,2.40
2022-08-16T11:45:33.720Z,2.40
2022-08-16T11:48:02.834Z,2.10
2022-08-16T11:50:33.260Z,2.45
2022-08-16T11:53:02.435Z,2.55
2022-08-16T11:55:30.814Z,2.30
2022-08-16T11:57:57.657Z,2.30
2022-08-16T12:00:33.519Z,2.40
2022-08-16T12:03:16.000Z,2.20
2022-08-16T12:05:43.949Z,2.55
2022-08-16T12:08:11.057Z,2.58
2022-08-16T12:10:40.114Z,2.40
2022-08-16T12:13:10.266Z,2.15
2022-08-16T12:15:37.237Z,2.35
2022-08-16T12:18:04.805Z,2.42
2022-08-16T12:20:37.891Z,2.50
2022-08-16T12:23:04.898Z,2.38
2022-08-16T12:25:32.703Z,2.50
2022-08-16T12:28:04.201Z,2.15
2022-08-16T12:30:38.844Z,2.50
2022-08-16T12:33:06.775Z,2.38
2022-08-16T12:35:37.764Z,2.15
2022-08-16T12:38:10.353Z,2.88
2022-08-16T12:40:57.118Z,2.25
2022-08-16T12:43:24.238Z,2.35
2022-08-16T12:45:52.832Z,2.28
2022-08-16T12:48:39.752Z,2.50
2022-08-16T12:51:19.637Z,2.17
2022-08-16T12:53:51.774Z,2.33
2022-08-16T12:56:19.509Z,2.50
2022-08-16T12:58:51.545Z,2.72
2022-08-16T13:01:22.613Z,2.85
2022-08-16T13:04:11.285Z,2.40
2022-08-16T13:06:40.048Z,2.20
2022-08-16T13:09:20.165Z,2.20
2022-08-16T13:12:16.050Z,2.20
2022-08-16T13:14:43.437Z,2.15
2022-08-16T13:17:18.542Z,2.65
2022-08-16T13:22:36.130Z,2.22
2022-08-16T13:25:03.806Z,2.63
2022-08-16T13:27:34.927Z,1.90
2022-08-16T13:30:36.536Z,1.98
2022-08-16T13:33:11.297Z,2.53
2022-08-16T13:35:43.208Z,2.50
2022-08-16T13:38:21.586Z,2.20
2022-08-16T13:40:56.406Z,2.17
2022-08-16T13:43:28.850Z,2.20
2022-08-16T13:46:02.816Z,2.30
2022-08-16T13:48:42.834Z,2.25
2022-08-16T13:51:17.153Z,2.53
2022-08-16T13:53:54.734Z,2.17
2022-08-16T13:56:34.242Z,2.30
2022-08-16T13:59:05.676Z,2.20
2022-08-16T14:01:32.929Z,2.40
2022-08-16T14:04:03.634Z,2.25
2022-08-16T14:06:31.154Z,2.13
2022-08-16T14:08:58.772Z,2.60
2022-08-16T14:11:26.173Z,2.38
2022-08-16T14:13:55.241Z,2.40
2022-08-16T14:16:24.473Z,2.40
2022-08-16T14:19:00.636Z,2.72
2022-08-16T14:21:35.163Z,2.70
2022-08-16T14:24:16.766Z,2.58
2022-08-16T14:26:52.740Z,2.20
2022-08-16T14:29:19.844Z,2.20
2022-08-16T14:31:46.583Z,2.00
2022-08-16T14:34:20.844Z,2.20
2022-08-16T14:36:51.246Z,2.28
2022-08-16T14:39:22.035Z,2.00
2022-08-16T14:41:48.859Z,2.83
2022-08-16T14:44:20.059Z,3.25
2022-08-16T14:46:46.972Z,2.50
2022-08-16T14:49:14.412Z,2.85
2022-08-16T14:51:45.939Z,2.78
2022-08-16T14:54:12.807Z,2.55
2022-08-16T14:56:42.871Z,2.42
2022-08-16T14:59:13.694Z,3.20
2022-08-16T15:01:57.223Z,2.85
2022-08-16T15:04:37.873Z,2.90
2022-08-16T15:07:13.686Z,2.70
2022-08-16T15:09:44.474Z,2.72
2022-08-16T15:12:33.652Z,2.95
2022-08-16T15:15:01.305Z,3.00
2022-08-16T15:17:33.917Z,3.03
2022-08-16T15:20:08.414Z,3.05
2022-08-16T15:22:41.764Z,2.95
2022-08-16T15:25:12.026Z,3.05
2022-08-16T15:27:42.166Z,3.00
2022-08-16T15:30:57.983Z,2.40
2022-08-16T15:33:04.233Z,2.40
2022-08-16T15:35:31.613Z,3.15
2022-08-16T15:38:00.759Z,3.22
2022-08-16T15:40:35.137Z,2.95
2022-08-16T15:43:03.878Z,2.80
2022-08-16T15:45:53.693Z,2.70
2022-08-16T15:48:29.160Z,2.72
2022-08-16T15:50:57.990Z,3.08
2022-08-16T15:53:27.244Z,3.00
2022-08-16T15:55:55.461Z,3.35
2022-08-16T15:58:38.467Z,3.25
2022-08-16T16:01:05.952Z,3.13
2022-08-16T16:03:34.667Z,3.03
2022-08-16T16:06:02.666Z,2.88
2022-08-16T16:08:29.462Z,2.95
2022-08-16T16:10:59.570Z,3.08
2022-08-16T16:13:26.496Z,2.67
2022-08-16T16:15:55.424Z,2.80
2022-08-16T16:18:24.578Z,2.92
2022-08-16T16:20:54.023Z,2.65
2022-08-16T16:23:23.577Z,2.67
2022-08-16T16:25:51.158Z,2.83
2022-08-16T16:29:05.478Z,2.60
2022-08-16T16:31:11.565Z,2.55
2022-08-16T16:33:40.827Z,2.90
2022-08-16T16:36:11.674Z,2.78
2022-08-16T16:38:41.963Z,2.58
2022-08-16T16:41:10.042Z,2.53
2022-08-16T16:43:43.232Z,2.60
2022-08-16T16:46:38.972Z,2.28
2022-08-16T16:49:03.195Z,2.78
2022-08-16T16:51:31.340Z,2.75
2022-08-16T16:53:59.727Z,2.70
2022-08-16T16:56:36.882Z,2.58
2022-08-16T16:59:09.445Z,2.33
2022-08-16T17:02:00.404Z,2.17
2022-08-16T17:04:31.630Z,2.67
2022-08-16T17:06:59.644Z,2.85
2022-08-16T17:09:28.747Z,2.47
2022-08-16T17:11:56.516Z,2.50
2022-08-16T17:14:32.760Z,2.50
2022-08-16T17:17:01.543Z,2.42
2022-08-16T17:19:31.549Z,2.35
2022-08-16T17:21:59.130Z,2.53
2022-08-16T17:24:26.335Z,2.20
2022-08-16T17:27:07.915Z,2.15
2022-08-16T17:29:35.082Z,2.90
2022-08-16T17:35:00.598Z,2.55
2022-08-16T17:37:42.447Z,2.35
2022-08-16T17:39:27.124Z,2.53
2022-08-16T17:40:23.333Z,2.22
2022-08-16T17:43:04.086Z,2.42
2022-08-16T17:45:30.713Z,2.42
2022-08-16T17:47:57.366Z,2.15
2022-08-16T17:50:24.563Z,2.33
2022-08-16T17:52:54.250Z,2.28
2022-08-16T17:55:27.745Z,2.40
2022-08-16T17:57:54.370Z,2.55
2022-08-16T18:00:21.826Z,2.28
2022-08-16T18:02:50.306Z,2.47
2022-08-16T18:05:17.457Z,2.03
2022-08-16T18:07:44.153Z,2.38
2022-08-16T18:10:11.381Z,2.65
2022-08-16T18:12:55.777Z,2.53
2022-08-16T18:15:23.374Z,2.72
2022-08-16T18:17:53.072Z,2.70
2022-08-16T18:20:41.398Z,2.40
2022-08-16T18:23:24.554Z,2.53
2022-08-16T18:25:56.812Z,2.75
2022-08-16T18:28:24.353Z,2.25
2022-08-16T18:30:52.407Z,2.55
2022-08-16T18:33:22.156Z,2.78
2022-08-16T18:35:48.817Z,2.38
2022-08-16T18:38:15.556Z,2.28
2022-08-16T18:40:42.212Z,2.60
2022-08-16T18:43:17.262Z,2.67
2022-08-16T18:45:45.463Z,2.63
2022-08-16T18:48:12.405Z,2.35
2022-08-16T18:51:03.221Z,2.10
2022-08-16T18:53:29.680Z,2.00
2022-08-16T18:56:01.312Z,2.53
2022-08-16T18:58:28.989Z,2.47
2022-08-16T19:00:56.607Z,2.75
2022-08-16T19:03:26.307Z,2.80
2022-08-16T19:06:03.912Z,2.97
2022-08-16T19:08:39.839Z,2.80
2022-08-16T19:11:09.425Z,2.80
2022-08-16T19:13:36.095Z,2.92
2022-08-16T19:16:03.717Z,2.70
2022-08-16T19:18:36.382Z,3.00
2022-08-16T19:21:04.105Z,3.17
2022-08-16T19:23:34.325Z,2.40
2022-08-16T19:26:10.208Z,2.90
